sensor_id;sensor_type;location;lat;lon;timestamp;P1;durP1;ratioP1;P2;durP2;ratioP2
55417;SDS011;41287;47.554;7.844;2023-06-22T00:01:52;2.10;;;1.23;;
55417;SDS011;41287;47.554;7.844;2023-06-22T00:04:17;2.95;;;1.83;;
55417;SDS011;41287;47.554;7.844;2023-06-22T00:06:42;1.88;;;1.42;;
55417;SDS011;41287;47.554;7.844;2023-06-22T00:09:08;2.10;;;1.55;;
55417;SDS011;41287;47.554;7.844;2023-06-22T00:11:35;2.35;;;1.55;;
55417;SDS011;41287;47.554;7.844;2023-06-22T00:14:03;2.15;;;1.58;;
55417;SDS011;41287;47.554;7.844;2023-06-22T00:16:30;2.22;;;1.30;;
55417;SDS011;41287;47.554;7.844;2023-06-22T00:18:57;2.50;;;1.67;;
55417;SDS011;41287;47.554;7.844;2023-06-22T00:21:25;1.90;;;1.45;;
55417;SDS011;41287;47.554;7.844;2023-06-22T00:23:53;2.05;;;1.42;;
55417;SDS011;41287;47.554;7.844;2023-06-22T00:26:19;2.10;;;1.63;;
55417;SDS011;41287;47.554;7.844;2023-06-22T00:28:45;2.50;;;1.75;;
55417;SDS011;41287;47.554;7.844;2023-06-22T00:31:11;2.00;;;1.50;;
55417;SDS011;41287;47.554;7.844;2023-06-22T00:33:36;2.17;;;1.40;;
55417;SDS011;41287;47.554;7.844;2023-06-22T00:36:02;1.85;;;1.27;;
55417;SDS011;41287;47.554;7.844;2023-06-22T00:38:28;2.00;;;1.60;;
55417;SDS011;41287;47.554;7.844;2023-06-22T00:40:54;2.08;;;1.60;;
55417;SDS011;41287;47.554;7.844;2023-06-22T00:43:19;2.10;;;1.58;;
55417;SDS011;41287;47.554;7.844;2023-06-22T00:45:45;2.35;;;1.30;;
55417;SDS011;41287;47.554;7.844;2023-06-22T00:48:10;2.85;;;1.80;;
55417;SDS011;41287;47.554;7.844;2023-06-22T00:50:37;2.33;;;1.63;;
55417;SDS011;41287;47.554;7.844;2023-06-22T00:53:03;4.45;;;1.40;;
55417;SDS011;41287;47.554;7.844;2023-06-22T00:55:37;2.13;;;1.52;;
55417;SDS011;41287;47.554;7.844;2023-06-22T00:58:08;1.60;;;1.20;;
55417;SDS011;41287;47.554;7.844;2023-06-22T01:00:35;2.35;;;1.60;;
55417;SDS011;41287;47.554;7.844;2023-06-22T01:03:06;2.55;;;1.40;;
55417;SDS011;41287;47.554;7.844;2023-06-22T01:05:35;1.77;;;1.40;;
55417;SDS011;41287;47.554;7.844;2023-06-22T01:08:11;2.13;;;1.50;;
55417;SDS011;41287;47.554;7.844;2023-06-22T01:13:28;2.25;;;1.45;;
55417;SDS011;41287;47.554;7.844;2023-06-22T01:16:05;2.47;;;1.60;;
55417;SDS011;41287;47.554;7.844;2023-06-22T01:18:36;2.10;;;1.33;;
55417;SDS011;41287;47.554;7.844;2023-06-22T01:21:05;2.60;;;1.27;;
55417;SDS011;41287;47.554;7.844;2023-06-22T01:27:15;2.92;;;1.58;;
55417;SDS011;41287;47.554;7.844;2023-06-22T01:29:16;2.40;;;1.65;;
55417;SDS011;41287;47.554;7.844;2023-06-22T01:31:43;2.92;;;1.88;;
55417;SDS011;41287;47.554;7.844;2023-06-22T01:34:10;3.78;;;2.05;;
55417;SDS011;41287;47.554;7.844;2023-06-22T01:36:37;2.20;;;1.40;;
55417;SDS011;41287;47.554;7.844;2023-06-22T01:39:05;4.45;;;1.70;;
55417;SDS011;41287;47.554;7.844;2023-06-22T01:41:34;2.50;;;1.63;;
55417;SDS011;41287;47.554;7.844;2023-06-22T01:44:02;2.28;;;1.52;;
55417;SDS011;41287;47.554;7.844;2023-06-22T01:46:36;4.28;;;1.40;;
55417;SDS011;41287;47.554;7.844;2023-06-22T01:49:03;3.20;;;1.80;;
55417;SDS011;41287;47.554;7.844;2023-06-22T01:51:29;3.00;;;1.83;;
55417;SDS011;41287;47.554;7.844;2023-06-22T01:53:55;3.15;;;1.60;;
55417;SDS011;41287;47.554;7.844;2023-06-22T01:56:20;2.47;;;1.60;;
55417;SDS011;41287;47.554;7.844;2023-06-22T01:58:48;2.08;;;1.45;;
55417;SDS011;41287;47.554;7.844;2023-06-22T02:01:20;2.63;;;1.45;;
55417;SDS011;41287;47.554;7.844;2023-06-22T02:03:54;4.00;;;1.90;;
55417;SDS011;41287;47.554;7.844;2023-06-22T02:06:29;3.83;;;1.92;;
55417;SDS011;41287;47.554;7.844;2023-06-22T02:09:01;3.05;;;1.83;;
55417;SDS011;41287;47.554;7.844;2023-06-22T02:11:28;2.70;;;1.80;;
55417;SDS011;41287;47.554;7.844;2023-06-22T02:13:56;4.22;;;1.55;;
55417;SDS011;41287;47.554;7.844;2023-06-22T02:16:23;2.42;;;1.80;;
55417;SDS011;41287;47.554;7.844;2023-06-22T02:18:48;2.25;;;1.58;;
55417;SDS011;41287;47.554;7.844;2023-06-22T02:21:18;3.17;;;1.67;;
55417;SDS011;41287;47.554;7.844;2023-06-22T02:23:44;2.20;;;1.52;;
55417;SDS011;41287;47.554;7.844;2023-06-22T02:26:10;4.65;;;1.80;;
55417;SDS011;41287;47.554;7.844;2023-06-22T02:28:36;3.00;;;1.73;;
55417;SDS011;41287;47.554;7.844;2023-06-22T02:31:02;4.03;;;1.98;;
55417;SDS011;41287;47.554;7.844;2023-06-22T02:33:27;3.72;;;1.70;;
55417;SDS011;41287;47.554;7.844;2023-06-22T02:35:53;4.97;;;2.15;;
55417;SDS011;41287;47.554;7.844;2023-06-22T02:38:18;3.10;;;1.80;;
55417;SDS011;41287;47.554;7.844;2023-06-22T02:40:44;3.50;;;1.95;;
55417;SDS011;41287;47.554;7.844;2023-06-22T02:43:10;2.70;;;1.70;;
55417;SDS011;41287;47.554;7.844;2023-06-22T02:45:35;4.35;;;1.80;;
55417;SDS011;41287;47.554;7.844;2023-06-22T02:48:00;2.95;;;1.45;;
55417;SDS011;41287;47.554;7.844;2023-06-22T02:50:25;3.45;;;2.00;;
55417;SDS011;41287;47.554;7.844;2023-06-22T02:52:51;2.13;;;1.50;;
55417;SDS011;41287;47.554;7.844;2023-06-22T02:55:18;2.28;;;1.55;;
55417;SDS011;41287;47.554;7.844;2023-06-22T02:57:44;4.50;;;2.08;;
55417;SDS011;41287;47.554;7.844;2023-06-22T03:00:12;2.85;;;1.80;;
55417;SDS011;41287;47.554;7.844;2023-06-22T03:02:42;3.13;;;2.00;;
55417;SDS011;41287;47.554;7.844;2023-06-22T03:05:09;4.53;;;2.10;;
55417;SDS011;41287;47.554;7.844;2023-06-22T03:07:38;3.13;;;1.58;;
55417;SDS011;41287;47.554;7.844;2023-06-22T03:10:05;3.85;;;1.73;;
55417;SDS011;41287;47.554;7.844;2023-06-22T03:12:30;3.00;;;1.88;;
55417;SDS011;41287;47.554;7.844;2023-06-22T03:14:55;3.42;;;1.85;;
55417;SDS011;41287;47.554;7.844;2023-06-22T03:17:23;2.53;;;1.70;;
55417;SDS011;41287;47.554;7.844;2023-06-22T03:19:49;3.42;;;2.10;;
55417;SDS011;41287;47.554;7.844;2023-06-22T03:22:14;3.22;;;1.80;;
55417;SDS011;41287;47.554;7.844;2023-06-22T03:24:40;3.40;;;1.92;;
55417;SDS011;41287;47.554;7.844;2023-06-22T03:27:05;2.97;;;1.90;;
55417;SDS011;41287;47.554;7.844;2023-06-22T03:29:31;3.10;;;1.85;;
55417;SDS011;41287;47.554;7.844;2023-06-22T03:31:56;3.30;;;1.98;;
55417;SDS011;41287;47.554;7.844;2023-06-22T03:34:22;2.88;;;1.70;;
55417;SDS011;41287;47.554;7.844;2023-06-22T03:36:47;5.82;;;1.95;;
55417;SDS011;41287;47.554;7.844;2023-06-22T03:39:12;3.15;;;1.88;;
55417;SDS011;41287;47.554;7.844;2023-06-22T03:41:38;3.10;;;1.70;;
55417;SDS011;41287;47.554;7.844;2023-06-22T03:44:03;3.05;;;2.00;;
55417;SDS011;41287;47.554;7.844;2023-06-22T03:46:29;2.72;;;1.92;;
55417;SDS011;41287;47.554;7.844;2023-06-22T03:48:54;3.53;;;2.10;;
55417;SDS011;41287;47.554;7.844;2023-06-22T03:51:20;3.28;;;2.15;;
55417;SDS011;41287;47.554;7.844;2023-06-22T03:53:45;5.30;;;1.98;;
55417;SDS011;41287;47.554;7.844;2023-06-22T03:56:11;4.63;;;2.20;;
55417;SDS011;41287;47.554;7.844;2023-06-22T03:58:36;5.20;;;2.05;;
55417;SDS011;41287;47.554;7.844;2023-06-22T04:01:07;3.20;;;1.80;;
55417;SDS011;41287;47.554;7.844;2023-06-22T04:03:36;4.30;;;2.25;;
55417;SDS011;41287;47.554;7.844;2023-06-22T04:06:02;2.50;;;1.98;;
55417;SDS011;41287;47.554;7.844;2023-06-22T04:08:27;6.18;;;2.38;;
55417;SDS011;41287;47.554;7.844;2023-06-22T04:10:52;4.35;;;2.10;;
55417;SDS011;41287;47.554;7.844;2023-06-22T04:13:19;2.50;;;1.70;;
55417;SDS011;41287;47.554;7.844;2023-06-22T04:15:48;3.30;;;1.80;;
55417;SDS011;41287;47.554;7.844;2023-06-22T04:18:13;4.18;;;2.17;;
55417;SDS011;41287;47.554;7.844;2023-06-22T04:20:39;3.55;;;2.00;;
55417;SDS011;41287;47.554;7.844;2023-06-22T04:23:04;4.82;;;2.13;;
55417;SDS011;41287;47.554;7.844;2023-06-22T04:25:29;3.63;;;2.17;;
55417;SDS011;41287;47.554;7.844;2023-06-22T04:27:55;6.43;;;2.70;;
55417;SDS011;41287;47.554;7.844;2023-06-22T04:30:20;4.07;;;2.42;;
55417;SDS011;41287;47.554;7.844;2023-06-22T04:32:46;4.10;;;2.58;;
55417;SDS011;41287;47.554;7.844;2023-06-22T04:35:20;3.53;;;2.28;;
55417;SDS011;41287;47.554;7.844;2023-06-22T04:37:47;5.75;;;2.50;;
55417;SDS011;41287;47.554;7.844;2023-06-22T04:40:14;5.68;;;2.40;;
55417;SDS011;41287;47.554;7.844;2023-06-22T04:42:40;6.43;;;2.25;;
55417;SDS011;41287;47.554;7.844;2023-06-22T04:45:05;3.83;;;2.17;;
55417;SDS011;41287;47.554;7.844;2023-06-22T04:47:32;2.85;;;2.10;;
55417;SDS011;41287;47.554;7.844;2023-06-22T04:49:57;5.00;;;2.67;;
55417;SDS011;41287;47.554;7.844;2023-06-22T04:52:23;4.87;;;2.27;;
55417;SDS011;41287;47.554;7.844;2023-06-22T04:54:49;4.93;;;2.38;;
55417;SDS011;41287;47.554;7.844;2023-06-22T04:57:20;3.20;;;2.10;;
55417;SDS011;41287;47.554;7.844;2023-06-22T04:59:46;3.25;;;2.20;;
55417;SDS011;41287;47.554;7.844;2023-06-22T05:02:11;4.65;;;2.83;;
55417;SDS011;41287;47.554;7.844;2023-06-22T05:04:36;7.32;;;2.45;;
55417;SDS011;41287;47.554;7.844;2023-06-22T05:07:03;5.10;;;2.42;;
55417;SDS011;41287;47.554;7.844;2023-06-22T05:09:29;6.40;;;3.17;;
55417;SDS011;41287;47.554;7.844;2023-06-22T05:11:55;8.48;;;3.45;;
55417;SDS011;41287;47.554;7.844;2023-06-22T05:14:27;8.52;;;3.67;;
55417;SDS011;41287;47.554;7.844;2023-06-22T05:16:52;10.45;;;4.20;;
55417;SDS011;41287;47.554;7.844;2023-06-22T05:19:17;10.32;;;4.13;;
55417;SDS011;41287;47.554;7.844;2023-06-22T05:21:43;10.25;;;5.30;;
55417;SDS011;41287;47.554;7.844;2023-06-22T05:24:08;11.75;;;4.55;;
55417;SDS011;41287;47.554;7.844;2023-06-22T05:26:34;12.65;;;4.93;;
55417;SDS011;41287;47.554;7.844;2023-06-22T05:29:00;10.68;;;4.88;;
55417;SDS011;41287;47.554;7.844;2023-06-22T05:31:26;12.02;;;4.78;;
55417;SDS011;41287;47.554;7.844;2023-06-22T05:33:52;9.63;;;4.30;;
55417;SDS011;41287;47.554;7.844;2023-06-22T05:36:19;11.43;;;4.57;;
55417;SDS011;41287;47.554;7.844;2023-06-22T05:38:45;10.80;;;5.00;;
55417;SDS011;41287;47.554;7.844;2023-06-22T05:41:10;9.43;;;4.60;;
55417;SDS011;41287;47.554;7.844;2023-06-22T05:43:35;11.25;;;5.22;;
55417;SDS011;41287;47.554;7.844;2023-06-22T05:46:01;10.85;;;4.60;;
55417;SDS011;41287;47.554;7.844;2023-06-22T05:48:29;10.32;;;5.43;;
55417;SDS011;41287;47.554;7.844;2023-06-22T05:50:54;12.88;;;5.65;;
55417;SDS011;41287;47.554;7.844;2023-06-22T05:53:20;12.52;;;5.60;;
55417;SDS011;41287;47.554;7.844;2023-06-22T05:55:45;14.60;;;6.50;;
55417;SDS011;41287;47.554;7.844;2023-06-22T05:58:11;12.45;;;6.60;;
55417;SDS011;41287;47.554;7.844;2023-06-22T06:00:40;13.27;;;6.07;;
55417;SDS011;41287;47.554;7.844;2023-06-22T06:03:09;15.77;;;6.63;;
55417;SDS011;41287;47.554;7.844;2023-06-22T06:05:35;20.25;;;7.03;;
55417;SDS011;41287;47.554;7.844;2023-06-22T06:08:01;13.85;;;6.00;;
55417;SDS011;41287;47.554;7.844;2023-06-22T06:10:29;14.23;;;6.22;;
55417;SDS011;41287;47.554;7.844;2023-06-22T06:12:55;13.20;;;6.00;;
55417;SDS011;41287;47.554;7.844;2023-06-22T06:15:21;11.93;;;5.43;;
55417;SDS011;41287;47.554;7.844;2023-06-22T06:17:52;14.07;;;6.20;;
55417;SDS011;41287;47.554;7.844;2023-06-22T06:20:18;9.77;;;4.80;;
55417;SDS011;41287;47.554;7.844;2023-06-22T06:22:47;12.68;;;5.60;;
55417;SDS011;41287;47.554;7.844;2023-06-22T06:25:13;15.13;;;6.15;;
55417;SDS011;41287;47.554;7.844;2023-06-22T06:27:43;12.70;;;5.70;;
55417;SDS011;41287;47.554;7.844;2023-06-22T06:30:10;14.43;;;6.88;;
55417;SDS011;41287;47.554;7.844;2023-06-22T06:32:36;15.57;;;6.40;;
55417;SDS011;41287;47.554;7.844;2023-06-22T06:35:01;12.25;;;5.35;;
55417;SDS011;41287;47.554;7.844;2023-06-22T06:37:27;12.02;;;5.75;;
55417;SDS011;41287;47.554;7.844;2023-06-22T06:39:53;14.38;;;6.28;;
55417;SDS011;41287;47.554;7.844;2023-06-22T06:42:18;11.80;;;5.65;;
55417;SDS011;41287;47.554;7.844;2023-06-22T06:44:44;9.80;;;5.38;;
55417;SDS011;41287;47.554;7.844;2023-06-22T06:47:10;13.38;;;5.80;;
55417;SDS011;41287;47.554;7.844;2023-06-22T06:49:35;10.82;;;5.80;;
55417;SDS011;41287;47.554;7.844;2023-06-22T06:52:01;10.27;;;6.40;;
55417;SDS011;41287;47.554;7.844;2023-06-22T06:54:26;12.27;;;6.00;;
55417;SDS011;41287;47.554;7.844;2023-06-22T06:56:52;10.52;;;5.47;;
55417;SDS011;41287;47.554;7.844;2023-06-22T06:59:20;11.35;;;5.93;;
55417;SDS011;41287;47.554;7.844;2023-06-22T07:01:45;11.75;;;6.43;;
55417;SDS011;41287;47.554;7.844;2023-06-22T07:04:12;11.02;;;5.63;;
55417;SDS011;41287;47.554;7.844;2023-06-22T07:06:38;13.23;;;6.40;;
55417;SDS011;41287;47.554;7.844;2023-06-22T07:09:04;10.02;;;6.13;;
55417;SDS011;41287;47.554;7.844;2023-06-22T07:11:29;15.18;;;6.97;;
55417;SDS011;41287;47.554;7.844;2023-06-22T07:13:54;12.55;;;6.75;;
55417;SDS011;41287;47.554;7.844;2023-06-22T07:16:20;12.43;;;6.78;;
55417;SDS011;41287;47.554;7.844;2023-06-22T07:18:45;11.88;;;5.97;;
55417;SDS011;41287;47.554;7.844;2023-06-22T07:21:12;9.68;;;6.10;;
55417;SDS011;41287;47.554;7.844;2023-06-22T07:23:38;10.70;;;5.97;;
55417;SDS011;41287;47.554;7.844;2023-06-22T07:26:03;9.73;;;5.67;;
55417;SDS011;41287;47.554;7.844;2023-06-22T07:28:31;12.15;;;6.10;;
55417;SDS011;41287;47.554;7.844;2023-06-22T07:31:01;12.98;;;6.55;;
55417;SDS011;41287;47.554;7.844;2023-06-22T07:33:28;10.77;;;5.90;;
55417;SDS011;41287;47.554;7.844;2023-06-22T07:35:53;10.63;;;6.07;;
55417;SDS011;41287;47.554;7.844;2023-06-22T07:38:18;14.32;;;6.47;;
55417;SDS011;41287;47.554;7.844;2023-06-22T07:40:44;12.20;;;6.03;;
55417;SDS011;41287;47.554;7.844;2023-06-22T07:43:10;10.85;;;6.55;;
55417;SDS011;41287;47.554;7.844;2023-06-22T07:45:35;11.63;;;6.10;;
55417;SDS011;41287;47.554;7.844;2023-06-22T07:50:33;9.33;;;5.33;;
55417;SDS011;41287;47.554;7.844;2023-06-22T07:52:59;10.40;;;6.22;;
55417;SDS011;41287;47.554;7.844;2023-06-22T07:55:24;11.25;;;6.38;;
55417;SDS011;41287;47.554;7.844;2023-06-22T07:57:49;10.70;;;6.25;;
55417;SDS011;41287;47.554;7.844;2023-06-22T08:00:17;9.77;;;6.07;;
55417;SDS011;41287;47.554;7.844;2023-06-22T08:02:45;13.45;;;6.20;;
55417;SDS011;41287;47.554;7.844;2023-06-22T08:05:11;10.70;;;5.60;;
55417;SDS011;41287;47.554;7.844;2023-06-22T08:07:37;11.20;;;6.18;;
55417;SDS011;41287;47.554;7.844;2023-06-22T08:10:04;12.73;;;6.78;;
55417;SDS011;41287;47.554;7.844;2023-06-22T08:12:31;9.02;;;5.35;;
55417;SDS011;41287;47.554;7.844;2023-06-22T08:14:57;9.93;;;5.70;;
55417;SDS011;41287;47.554;7.844;2023-06-22T08:17:23;10.75;;;5.72;;
55417;SDS011;41287;47.554;7.844;2023-06-22T08:19:49;10.48;;;5.85;;
55417;SDS011;41287;47.554;7.844;2023-06-22T08:22:15;11.13;;;5.60;;
55417;SDS011;41287;47.554;7.844;2023-06-22T08:24:41;7.72;;;5.63;;
55417;SDS011;41287;47.554;7.844;2023-06-22T08:27:06;9.32;;;5.45;;
55417;SDS011;41287;47.554;7.844;2023-06-22T08:29:34;9.30;;;5.70;;
55417;SDS011;41287;47.554;7.844;2023-06-22T08:32:00;10.73;;;4.97;;
55417;SDS011;41287;47.554;7.844;2023-06-22T08:34:25;10.43;;;5.00;;
55417;SDS011;41287;47.554;7.844;2023-06-22T08:36:52;10.95;;;5.50;;
55417;SDS011;41287;47.554;7.844;2023-06-22T08:39:18;9.88;;;5.13;;
55417;SDS011;41287;47.554;7.844;2023-06-22T08:41:45;11.18;;;6.10;;
55417;SDS011;41287;47.554;7.844;2023-06-22T08:44:10;9.45;;;4.95;;
55417;SDS011;41287;47.554;7.844;2023-06-22T08:46:39;7.90;;;5.20;;
55417;SDS011;41287;47.554;7.844;2023-06-22T08:49:06;9.13;;;5.53;;
55417;SDS011;41287;47.554;7.844;2023-06-22T08:51:31;13.88;;;6.32;;
55417;SDS011;41287;47.554;7.844;2023-06-22T08:53:57;8.90;;;5.88;;
55417;SDS011;41287;47.554;7.844;2023-06-22T08:56:22;9.93;;;5.38;;
55417;SDS011;41287;47.554;7.844;2023-06-22T08:58:48;10.02;;;5.38;;
55417;SDS011;41287;47.554;7.844;2023-06-22T09:01:13;9.05;;;5.72;;
55417;SDS011;41287;47.554;7.844;2023-06-22T09:03:40;8.20;;;5.43;;
55417;SDS011;41287;47.554;7.844;2023-06-22T09:06:05;9.80;;;5.70;;
55417;SDS011;41287;47.554;7.844;2023-06-22T09:08:30;11.13;;;6.03;;
55417;SDS011;41287;47.554;7.844;2023-06-22T09:10:56;9.65;;;5.78;;
55417;SDS011;41287;47.554;7.844;2023-06-22T09:13:21;10.10;;;5.70;;
55417;SDS011;41287;47.554;7.844;2023-06-22T09:15:47;9.15;;;5.20;;
55417;SDS011;41287;47.554;7.844;2023-06-22T09:18:13;9.48;;;5.53;;
55417;SDS011;41287;47.554;7.844;2023-06-22T09:20:39;10.63;;;6.10;;
55417;SDS011;41287;47.554;7.844;2023-06-22T09:23:06;11.73;;;5.53;;
55417;SDS011;41287;47.554;7.844;2023-06-22T09:25:32;13.13;;;6.70;;
55417;SDS011;41287;47.554;7.844;2023-06-22T09:27:57;9.15;;;5.75;;
55417;SDS011;41287;47.554;7.844;2023-06-22T09:30:23;11.98;;;6.28;;
55417;SDS011;41287;47.554;7.844;2023-06-22T09:32:48;10.18;;;5.88;;
55417;SDS011;41287;47.554;7.844;2023-06-22T09:35:13;11.35;;;6.05;;
55417;SDS011;41287;47.554;7.844;2023-06-22T09:37:39;10.90;;;5.72;;
55417;SDS011;41287;47.554;7.844;2023-06-22T09:40:06;10.60;;;5.88;;
55417;SDS011;41287;47.554;7.844;2023-06-22T09:42:37;12.23;;;5.78;;
55417;SDS011;41287;47.554;7.844;2023-06-22T09:45:03;9.30;;;5.80;;
55417;SDS011;41287;47.554;7.844;2023-06-22T09:47:29;9.50;;;5.35;;
55417;SDS011;41287;47.554;7.844;2023-06-22T09:49:54;9.63;;;5.47;;
55417;SDS011;41287;47.554;7.844;2023-06-22T09:52:20;10.70;;;6.00;;
55417;SDS011;41287;47.554;7.844;2023-06-22T09:54:46;11.43;;;5.82;;
55417;SDS011;41287;47.554;7.844;2023-06-22T09:57:12;10.23;;;5.75;;
55417;SDS011;41287;47.554;7.844;2023-06-22T09:59:37;8.18;;;5.47;;
55417;SDS011;41287;47.554;7.844;2023-06-22T10:02:05;9.63;;;5.82;;
55417;SDS011;41287;47.554;7.844;2023-06-22T10:04:31;10.00;;;5.53;;
55417;SDS011;41287;47.554;7.844;2023-06-22T10:06:56;7.93;;;5.00;;
55417;SDS011;41287;47.554;7.844;2023-06-22T10:09:21;10.77;;;5.70;;
55417;SDS011;41287;47.554;7.844;2023-06-22T10:11:47;10.95;;;5.25;;
55417;SDS011;41287;47.554;7.844;2023-06-22T10:14:12;9.95;;;5.63;;
55417;SDS011;41287;47.554;7.844;2023-06-22T10:16:37;9.32;;;5.63;;
55417;SDS011;41287;47.554;7.844;2023-06-22T10:19:02;8.75;;;5.30;;
55417;SDS011;41287;47.554;7.844;2023-06-22T10:21:28;9.35;;;5.25;;
55417;SDS011;41287;47.554;7.844;2023-06-22T10:23:59;9.95;;;5.72;;
55417;SDS011;41287;47.554;7.844;2023-06-22T10:26:30;9.95;;;5.80;;
55417;SDS011;41287;47.554;7.844;2023-06-22T10:28:56;14.52;;;6.53;;
55417;SDS011;41287;47.554;7.844;2023-06-22T10:31:21;11.07;;;6.15;;
55417;SDS011;41287;47.554;7.844;2023-06-22T10:33:47;11.50;;;6.35;;
55417;SDS011;41287;47.554;7.844;2023-06-22T10:36:14;12.98;;;6.68;;
55417;SDS011;41287;47.554;7.844;2023-06-22T10:38:39;12.55;;;6.68;;
55417;SDS011;41287;47.554;7.844;2023-06-22T10:41:05;11.63;;;6.10;;
55417;SDS011;41287;47.554;7.844;2023-06-22T10:43:32;9.32;;;5.25;;
55417;SDS011;41287;47.554;7.844;2023-06-22T10:45:58;9.30;;;5.82;;
55417;SDS011;41287;47.554;7.844;2023-06-22T10:48:25;8.68;;;5.55;;
55417;SDS011;41287;47.554;7.844;2023-06-22T10:50:51;9.93;;;5.55;;
55417;SDS011;41287;47.554;7.844;2023-06-22T10:53:16;12.55;;;5.78;;
55417;SDS011;41287;47.554;7.844;2023-06-22T10:55:41;13.50;;;5.80;;
55417;SDS011;41287;47.554;7.844;2023-06-22T10:58:06;10.57;;;5.60;;
55417;SDS011;41287;47.554;7.844;2023-06-22T11:00:35;9.60;;;5.35;;
55417;SDS011;41287;47.554;7.844;2023-06-22T11:03:00;9.65;;;5.30;;
55417;SDS011;41287;47.554;7.844;2023-06-22T11:05:26;9.95;;;5.95;;
55417;SDS011;41287;47.554;7.844;2023-06-22T11:07:51;11.00;;;5.55;;
55417;SDS011;41287;47.554;7.844;2023-06-22T11:10:16;8.85;;;5.40;;
55417;SDS011;41287;47.554;7.844;2023-06-22T11:12:42;8.27;;;5.07;;
55417;SDS011;41287;47.554;7.844;2023-06-22T11:15:08;10.00;;;5.60;;
55417;SDS011;41287;47.554;7.844;2023-06-22T11:17:33;10.40;;;5.60;;
55417;SDS011;41287;47.554;7.844;2023-06-22T11:19:59;8.60;;;5.43;;
55417;SDS011;41287;47.554;7.844;2023-06-22T11:22:25;10.07;;;5.65;;
55417;SDS011;41287;47.554;7.844;2023-06-22T11:24:54;10.95;;;5.68;;
55417;SDS011;41287;47.554;7.844;2023-06-22T11:27:19;8.98;;;5.43;;
55417;SDS011;41287;47.554;7.844;2023-06-22T11:29:44;10.52;;;5.72;;
55417;SDS011;41287;47.554;7.844;2023-06-22T11:32:10;8.80;;;5.57;;
55417;SDS011;41287;47.554;7.844;2023-06-22T11:34:35;9.65;;;5.45;;
55417;SDS011;41287;47.554;7.844;2023-06-22T11:37:01;11.43;;;5.63;;
55417;SDS011;41287;47.554;7.844;2023-06-22T11:39:26;9.70;;;5.32;;
55417;SDS011;41287;47.554;7.844;2023-06-22T11:41:52;10.48;;;5.07;;
55417;SDS011;41287;47.554;7.844;2023-06-22T11:44:17;10.18;;;5.38;;
55417;SDS011;41287;47.554;7.844;2023-06-22T11:46:45;11.20;;;5.57;;
55417;SDS011;41287;47.554;7.844;2023-06-22T11:49:10;9.17;;;5.10;;
55417;SDS011;41287;47.554;7.844;2023-06-22T11:51:35;8.90;;;5.17;;
55417;SDS011;41287;47.554;7.844;2023-06-22T11:54:01;9.30;;;5.10;;
55417;SDS011;41287;47.554;7.844;2023-06-22T11:56:27;9.73;;;5.38;;
55417;SDS011;41287;47.554;7.844;2023-06-22T11:58:53;10.00;;;5.68;;
55417;SDS011;41287;47.554;7.844;2023-06-22T12:01:19;11.30;;;5.72;;
55417;SDS011;41287;47.554;7.844;2023-06-22T12:03:44;8.00;;;5.20;;
55417;SDS011;41287;47.554;7.844;2023-06-22T12:06:09;7.82;;;4.60;;
55417;SDS011;41287;47.554;7.844;2023-06-22T12:08:35;8.77;;;5.40;;
55417;SDS011;41287;47.554;7.844;2023-06-22T12:11:04;6.78;;;4.50;;
55417;SDS011;41287;47.554;7.844;2023-06-22T12:13:29;8.40;;;4.47;;
55417;SDS011;41287;47.554;7.844;2023-06-22T12:15:54;8.95;;;5.07;;
55417;SDS011;41287;47.554;7.844;2023-06-22T12:18:20;12.15;;;5.72;;
55417;SDS011;41287;47.554;7.844;2023-06-22T12:20:46;8.60;;;5.10;;
55417;SDS011;41287;47.554;7.844;2023-06-22T12:23:12;9.48;;;5.15;;
55417;SDS011;41287;47.554;7.844;2023-06-22T12:25:37;10.15;;;5.18;;
55417;SDS011;41287;47.554;7.844;2023-06-22T12:28:03;8.18;;;5.18;;
55417;SDS011;41287;47.554;7.844;2023-06-22T12:30:29;8.95;;;4.97;;
55417;SDS011;41287;47.554;7.844;2023-06-22T12:32:59;9.10;;;5.40;;
55417;SDS011;41287;47.554;7.844;2023-06-22T12:35:25;11.85;;;5.60;;
55417;SDS011;41287;47.554;7.844;2023-06-22T12:37:50;7.45;;;4.43;;
55417;SDS011;41287;47.554;7.844;2023-06-22T12:40:15;9.30;;;4.25;;
55417;SDS011;41287;47.554;7.844;2023-06-22T12:42:44;8.90;;;5.00;;
55417;SDS011;41287;47.554;7.844;2023-06-22T12:45:10;7.25;;;4.47;;
55417;SDS011;41287;47.554;7.844;2023-06-22T12:47:35;10.57;;;5.50;;
55417;SDS011;41287;47.554;7.844;2023-06-22T12:50:00;7.78;;;4.80;;
55417;SDS011;41287;47.554;7.844;2023-06-22T12:52:26;8.35;;;5.00;;
55417;SDS011;41287;47.554;7.844;2023-06-22T12:54:54;7.70;;;4.53;;
55417;SDS011;41287;47.554;7.844;2023-06-22T12:57:20;8.20;;;5.00;;
55417;SDS011;41287;47.554;7.844;2023-06-22T12:59:45;8.70;;;5.28;;
55417;SDS011;41287;47.554;7.844;2023-06-22T13:02:10;9.07;;;4.68;;
55417;SDS011;41287;47.554;7.844;2023-06-22T13:04:36;8.18;;;5.38;;
55417;SDS011;41287;47.554;7.844;2023-06-22T13:07:01;9.55;;;4.57;;
55417;SDS011;41287;47.554;7.844;2023-06-22T13:09:27;9.38;;;5.65;;
55417;SDS011;41287;47.554;7.844;2023-06-22T13:11:52;7.05;;;4.97;;
55417;SDS011;41287;47.554;7.844;2023-06-22T13:14:17;8.43;;;5.30;;
55417;SDS011;41287;47.554;7.844;2023-06-22T13:16:43;9.00;;;4.75;;
55417;SDS011;41287;47.554;7.844;2023-06-22T13:19:08;8.63;;;5.30;;
55417;SDS011;41287;47.554;7.844;2023-06-22T13:21:34;9.18;;;5.43;;
55417;SDS011;41287;47.554;7.844;2023-06-22T13:23:59;7.35;;;4.53;;
55417;SDS011;41287;47.554;7.844;2023-06-22T13:26:27;9.02;;;5.00;;
55417;SDS011;41287;47.554;7.844;2023-06-22T13:28:53;9.43;;;4.80;;
55417;SDS011;41287;47.554;7.844;2023-06-22T13:31:19;6.70;;;4.30;;
55417;SDS011;41287;47.554;7.844;2023-06-22T13:33:44;10.45;;;5.30;;
55417;SDS011;41287;47.554;7.844;2023-06-22T13:36:12;9.43;;;4.80;;
55417;SDS011;41287;47.554;7.844;2023-06-22T13:38:38;8.82;;;4.82;;
55417;SDS011;41287;47.554;7.844;2023-06-22T13:41:05;9.05;;;4.82;;
55417;SDS011;41287;47.554;7.844;2023-06-22T13:43:30;7.25;;;4.38;;
55417;SDS011;41287;47.554;7.844;2023-06-22T13:45:56;8.63;;;5.13;;
55417;SDS011;41287;47.554;7.844;2023-06-22T13:48:22;8.45;;;4.75;;
55417;SDS011;41287;47.554;7.844;2023-06-22T13:50:48;8.45;;;4.85;;
55417;SDS011;41287;47.554;7.844;2023-06-22T13:53:15;10.00;;;5.00;;
55417;SDS011;41287;47.554;7.844;2023-06-22T13:55:41;6.60;;;4.30;;
55417;SDS011;41287;47.554;7.844;2023-06-22T13:58:06;8.20;;;4.50;;
55417;SDS011;41287;47.554;7.844;2023-06-22T14:00:31;8.68;;;4.75;;
55417;SDS011;41287;47.554;7.844;2023-06-22T14:03:00;11.25;;;5.55;;
55417;SDS011;41287;47.554;7.844;2023-06-22T14:05:25;7.95;;;4.85;;
55417;SDS011;41287;47.554;7.844;2023-06-22T14:07:51;8.63;;;4.47;;
55417;SDS011;41287;47.554;7.844;2023-06-22T14:10:17;8.95;;;4.70;;
55417;SDS011;41287;47.554;7.844;2023-06-22T14:12:42;8.30;;;4.70;;
55417;SDS011;41287;47.554;7.844;2023-06-22T14:15:08;8.38;;;4.80;;
55417;SDS011;41287;47.554;7.844;2023-06-22T14:17:33;7.97;;;4.80;;
55417;SDS011;41287;47.554;7.844;2023-06-22T14:19:58;8.77;;;4.43;;
55417;SDS011;41287;47.554;7.844;2023-06-22T14:22:24;9.65;;;4.93;;
55417;SDS011;41287;47.554;7.844;2023-06-22T14:24:49;8.43;;;4.32;;
55417;SDS011;41287;47.554;7.844;2023-06-22T14:27:15;7.60;;;4.65;;
55417;SDS011;41287;47.554;7.844;2023-06-22T14:29:41;7.57;;;4.72;;
55417;SDS011;41287;47.554;7.844;2023-06-22T14:32:07;8.35;;;4.80;;
55417;SDS011;41287;47.554;7.844;2023-06-22T14:34:33;8.27;;;4.25;;
55417;SDS011;41287;47.554;7.844;2023-06-22T14:37:01;8.35;;;4.65;;
55417;SDS011;41287;47.554;7.844;2023-06-22T14:39:27;8.55;;;5.05;;
55417;SDS011;41287;47.554;7.844;2023-06-22T14:41:52;8.38;;;4.65;;
55417;SDS011;41287;47.554;7.844;2023-06-22T14:44:17;8.68;;;4.60;;
55417;SDS011;41287;47.554;7.844;2023-06-22T14:46:42;9.38;;;4.88;;